createdAt,value
2023-12-15T00:00:18.000Z,6.50
2023-12-15T00:01:17.000Z,6.54
2023-12-15T00:02:17.000Z,6.52
2023-12-15T00:03:17.000Z,6.53
2023-12-15T00:04:18.000Z,6.52
2023-12-15T00:05:17.000Z,6.54
2023-12-15T00:06:17.000Z,6.55
2023-12-15T00:07:17.000Z,6.53
2023-12-15T00:08:17.000Z,6.55
2023-12-15T00:09:17.000Z,6.53
2023-12-15T00:10:16.000Z,6.52
2023-12-15T00:11:16.000Z,6.56
2023-12-15T00:12:16.000Z,6.51
2023-12-15T00:13:16.000Z,6.52
2023-12-15T00:14:16.000Z,6.54
2023-12-15T00:15:16.000Z,6.53
2023-12-15T00:16:16.000Z,6.53
2023-12-15T00:17:17.000Z,6.53
2023-12-15T00:18:16.000Z,6.53
2023-12-15T00:19:16.000Z,6.52
2023-12-15T00:20:16.000Z,6.53
2023-12-15T00:21:16.000Z,6.54
2023-12-15T00:22:16.000Z,6.51
2023-12-15T00:23:16.000Z,6.51
2023-12-15T00:24:16.000Z,6.50
2023-12-15T00:25:16.000Z,6.51
2023-12-15T00:26:16.000Z,6.51
2023-12-15T00:27:16.000Z,6.51
2023-12-15T00:28:16.000Z,6.53
2023-12-15T00:29:17.000Z,6.51
2023-12-15T00:30:16.000Z,6.51
2023-12-15T00:31:16.000Z,6.54
2023-12-15T00:32:17.000Z,6.55
2023-12-15T00:33:16.000Z,6.54
2023-12-15T00:34:16.000Z,6.52
2023-12-15T00:35:16.000Z,6.49
2023-12-15T00:36:16.000Z,6.49
2023-12-15T00:37:16.000Z,6.50
2023-12-15T00:38:16.000Z,6.50
2023-12-15T00:39:16.000Z,6.49
2023-12-15T00:40:16.000Z,6.48
2023-12-15T00:41:16.000Z,6.45
2023-12-15T00:42:16.000Z,6.45
2023-12-15T00:43:16.000Z,6.45
2023-12-15T00:44:16.000Z,6.46
2023-12-15T00:45:16.000Z,6.46
2023-12-15T00:46:16.000Z,6.49
2023-12-15T00:47:16.000Z,6.49
2023-12-15T00:48:16.000Z,6.46
2023-12-15T00:49:16.000Z,6.48
2023-12-15T00:50:17.000Z,6.49
2023-12-15T00:51:16.000Z,6.47
2023-12-15T00:52:16.000Z,6.47
2023-12-15T00:53:16.000Z,6.49
2023-12-15T00:54:16.000Z,6.49
2023-12-15T00:55:16.000Z,6.50
2023-12-15T00:56:16.000Z,6.50
2023-12-15T00:57:16.000Z,6.48
2023-12-15T00:58:16.000Z,6.49
2023-12-15T00:59:16.000Z,6.48
2023-12-15T01:00:17.000Z,6.50
2023-12-15T01:01:16.000Z,6.49
2023-12-15T01:02:16.000Z,6.47
2023-12-15T01:03:16.000Z,6.48
2023-12-15T01:04:16.000Z,6.48
2023-12-15T01:05:16.000Z,6.49
2023-12-15T01:06:16.000Z,6.49
2023-12-15T01:07:16.000Z,6.48
2023-12-15T01:08:17.000Z,6.46
2023-12-15T01:09:17.000Z,6.47
2023-12-15T01:10:16.000Z,6.46
2023-12-15T01:11:16.000Z,6.46
2023-12-15T01:12:16.000Z,6.48
2023-12-15T01:13:16.000Z,6.50
2023-12-15T01:14:16.000Z,6.50
2023-12-15T01:15:16.000Z,6.51
2023-12-15T01:16:16.000Z,6.51
2023-12-15T01:17:16.000Z,6.51
2023-12-15T01:18:16.000Z,6.51
2023-12-15T01:19:16.000Z,6.51
2023-12-15T01:20:16.000Z,6.52
2023-12-15T01:21:16.000Z,6.53
2023-12-15T01:22:16.000Z,6.53
2023-12-15T01:23:16.000Z,6.53
2023-12-15T01:24:16.000Z,6.55
2023-12-15T01:25:16.000Z,6.55
2023-12-15T01:26:17.000Z,6.55
2023-12-15T01:27:16.000Z,6.55
2023-12-15T01:28:16.000Z,6.54
2023-12-15T01:29:16.000Z,6.55
2023-12-15T01:30:16.000Z,6.55
2023-12-15T01:31:16.000Z,6.55
2023-12-15T01:32:16.000Z,6.55
2023-12-15T01:33:16.000Z,6.54
2023-12-15T01:34:16.000Z,6.55
2023-12-15T01:35:16.000Z,6.56
2023-12-15T01:36:16.000Z,6.55
2023-12-15T01:37:16.000Z,6.56
2023-12-15T01:38:16.000Z,6.56
2023-12-15T01:39:16.000Z,6.57
2023-12-15T01:40:16.000Z,6.55
2023-12-15T01:41:16.000Z,6.56
2023-12-15T01:42:15.000Z,6.56
2023-12-15T01:43:15.000Z,6.56
2023-12-15T01:44:15.000Z,6.54
2023-12-15T01:45:15.000Z,6.55
2023-12-15T01:46:15.000Z,6.54
2023-12-15T01:47:17.000Z,6.56
2023-12-15T01:48:15.000Z,6.54
2023-12-15T01:49:16.000Z,6.50
2023-12-15T01:50:16.000Z,6.51
2023-12-15T01:51:16.000Z,6.50
2023-12-15T01:52:16.000Z,6.49
2023-12-15T01:53:16.000Z,6.52
2023-12-15T01:54:15.000Z,6.53
2023-12-15T01:55:15.000Z,6.52
2023-12-15T01:56:16.000Z,6.51
2023-12-15T01:57:16.000Z,6.52
2023-12-15T01:58:16.000Z,6.53
2023-12-15T01:59:16.000Z,6.53
2023-12-15T02:00:17.000Z,6.53
2023-12-15T02:01:15.000Z,6.53
2023-12-15T02:02:16.000Z,6.52
2023-12-15T02:03:15.000Z,6.52
2023-12-15T02:04:15.000Z,6.52
2023-12-15T02:05:16.000Z,6.52
2023-12-15T02:06:16.000Z,6.52
2023-12-15T02:07:16.000Z,6.53
2023-12-15T02:08:16.000Z,6.53
2023-12-15T02:09:16.000Z,6.52
2023-12-15T02:10:16.000Z,6.52
2023-12-15T02:11:15.000Z,6.51
2023-12-15T02:12:16.000Z,6.52
2023-12-15T02:13:16.000Z,6.52
2023-12-15T02:14:16.000Z,6.51
2023-12-15T02:15:17.000Z,6.53
2023-12-15T02:16:16.000Z,6.53
2023-12-15T02:17:16.000Z,6.52
2023-12-15T02:18:16.000Z,6.53
2023-12-15T02:19:16.000Z,6.53
2023-12-15T02:20:16.000Z,6.52
2023-12-15T02:21:16.000Z,6.54
2023-12-15T02:22:16.000Z,6.55
2023-12-15T02:23:16.000Z,6.54
2023-12-15T02:24:16.000Z,6.53
2023-12-15T02:25:16.000Z,6.52
2023-12-15T02:26:16.000Z,6.52
2023-12-15T02:27:16.000Z,6.51
2023-12-15T02:28:16.000Z,6.51
2023-12-15T02:29:17.000Z,6.48
2023-12-15T02:30:16.000Z,6.47
2023-12-15T02:31:20.000Z,6.48
2023-12-15T02:32:16.000Z,6.46
2023-12-15T02:33:16.000Z,6.46
2023-12-15T02:34:16.000Z,6.48
2023-12-15T02:35:17.000Z,6.47
2023-12-15T02:36:21.000Z,6.47
2023-12-15T02:37:16.000Z,6.48
2023-12-15T02:38:18.000Z,6.49
2023-12-15T02:39:17.000Z,6.51
2023-12-15T02:40:16.000Z,6.49
2023-12-15T02:41:16.000Z,6.48
2023-12-15T02:42:16.000Z,6.46
2023-12-15T02:43:16.000Z,6.47
2023-12-15T02:44:15.000Z,6.48
2023-12-15T02:45:16.000Z,6.46
2023-12-15T02:46:15.000Z,6.47
2023-12-15T02:47:15.000Z,6.47
2023-12-15T02:48:16.000Z,6.47
2023-12-15T02:49:17.000Z,6.46
2023-12-15T02:50:16.000Z,6.46
2023-12-15T02:51:25.000Z,6.46
2023-12-15T02:52:15.000Z,6.44
2023-12-15T02:53:15.000Z,6.45
2023-12-15T02:54:15.000Z,6.44
2023-12-15T02:55:16.000Z,6.45
2023-12-15T02:56:15.000Z,6.45
2023-12-15T02:57:15.000Z,6.45
2023-12-15T02:58:16.000Z,6.46
2023-12-15T02:59:15.000Z,6.46
2023-12-15T03:00:16.000Z,6.45
2023-12-15T03:01:16.000Z,6.41
2023-12-15T03:02:17.000Z,6.39
2023-12-15T03:03:15.000Z,6.41
2023-12-15T03:04:15.000Z,6.41
2023-12-15T03:05:15.000Z,6.40
2023-12-15T03:06:16.000Z,6.42
2023-12-15T03:07:16.000Z,6.41
2023-12-15T03:08:15.000Z,6.39
2023-12-15T03:09:15.000Z,6.41
2023-12-15T03:10:16.000Z,6.39
2023-12-15T03:11:16.000Z,6.40
2023-12-15T03:12:16.000Z,6.40
2023-12-15T03:13:16.000Z,6.41
2023-12-15T03:14:16.000Z,6.42
2023-12-15T03:15:15.000Z,6.42
2023-12-15T03:16:16.000Z,6.43
2023-12-15T03:17:15.000Z,6.42
2023-12-15T03:18:15.000Z,6.44
2023-12-15T03:19:15.000Z,6.43
2023-12-15T03:20:15.000Z,6.43
2023-12-15T03:21:15.000Z,6.43
2023-12-15T03:22:15.000Z,6.44
2023-12-15T03:23:15.000Z,6.43
2023-12-15T03:24:15.000Z,6.45
2023-12-15T03:25:15.000Z,6.44
2023-12-15T03:26:15.000Z,6.44
2023-12-15T03:27:15.000Z,6.43
2023-12-15T03:28:16.000Z,6.44
2023-12-15T03:29:15.000Z,6.45
2023-12-15T03:30:15.000Z,6.46
2023-12-15T03:31:15.000Z,6.45
2023-12-15T03:32:15.000Z,6.45
2023-12-15T03:33:15.000Z,6.45
2023-12-15T03:34:16.000Z,6.45
2023-12-15T03:35:16.000Z,6.45
2023-12-15T03:36:15.000Z,6.45
2023-12-15T03:37:16.000Z,6.46
2023-12-15T03:38:16.000Z,6.44
2023-12-15T03:39:15.000Z,6.45
2023-12-15T03:40:16.000Z,6.45
2023-12-15T03:41:15.000Z,6.44
2023-12-15T03:42:15.000Z,6.44
2023-12-15T03:43:16.000Z,6.44
2023-12-15T03:44:15.000Z,6.45
2023-12-15T03:45:15.000Z,6.48
2023-12-15T03:46:15.000Z,6.47
2023-12-15T03:47:15.000Z,6.48
2023-12-15T03:48:15.000Z,6.48
2023-12-15T03:49:15.000Z,6.48
2023-12-15T03:50:15.000Z,6.48
2023-12-15T03:51:15.000Z,6.49
2023-12-15T03:52:15.000Z,6.48
2023-12-15T03:53:15.000Z,6.48
2023-12-15T03:54:15.000Z,6.47
2023-12-15T03:55:16.000Z,6.48
2023-12-15T03:56:22.000Z,6.47
2023-12-15T03:57:15.000Z,6.47
2023-12-15T03:58:15.000Z,6.48
2023-12-15T03:59:15.000Z,6.47
2023-12-15T04:00:16.000Z,6.47
2023-12-15T04:01:15.000Z,6.47
2023-12-15T04:02:15.000Z,6.47
2023-12-15T04:03:15.000Z,6.48
2023-12-15T04:04:16.000Z,6.47
2023-12-15T04:05:15.000Z,6.48
2023-12-15T04:06:15.000Z,6.48
2023-12-15T04:07:15.000Z,6.48
2023-12-15T04:08:15.000Z,6.47
2023-12-15T04:09:15.000Z,6.46
2023-12-15T04:10:15.000Z,6.46
2023-12-15T04:11:16.000Z,6.46
2023-12-15T04:12:15.000Z,6.48
2023-12-15T04:13:15.000Z,6.47
2023-12-15T04:14:17.000Z,6.48
2023-12-15T04:15:17.000Z,6.47
2023-12-15T04:16:15.000Z,6.47
2023-12-15T04:17:15.000Z,6.47
2023-12-15T04:18:16.000Z,6.46
2023-12-15T04:19:15.000Z,6.44
2023-12-15T04:20:15.000Z,6.43
2023-12-15T04:21:15.000Z,6.44
2023-12-15T04:22:15.000Z,6.43
2023-12-15T04:23:15.000Z,6.42
2023-12-15T04:24:15.000Z,6.41
2023-12-15T04:25:15.000Z,6.42
2023-12-15T04:26:16.000Z,6.42
2023-12-15T04:27:15.000Z,6.43
2023-12-15T04:28:15.000Z,6.42
2023-12-15T04:29:15.000Z,6.42
2023-12-15T04:30:16.000Z,6.41
2023-12-15T04:31:15.000Z,6.41
2023-12-15T04:32:15.000Z,6.43
2023-12-15T04:33:15.000Z,6.41
2023-12-15T04:34:15.000Z,6.41
2023-12-15T04:35:15.000Z,6.41
2023-12-15T04:36:19.000Z,6.42
2023-12-15T04:37:15.000Z,6.42
2023-12-15T04:38:15.000Z,6.42
2023-12-15T04:39:15.000Z,6.41
2023-12-15T04:40:15.000Z,6.42
2023-12-15T04:41:19.000Z,6.41
2023-12-15T04:42:15.000Z,6.41
2023-12-15T04:43:15.000Z,6.41
2023-12-15T04:44:15.000Z,6.42
2023-12-15T04:45:16.000Z,6.42
2023-12-15T04:46:24.000Z,6.41
2023-12-15T04:47:16.000Z,6.42
2023-12-15T04:48:16.000Z,6.41
2023-12-15T04:49:16.000Z,6.40
2023-12-15T04:50:16.000Z,6.42
2023-12-15T04:51:16.000Z,6.40
2023-12-15T04:52:16.000Z,6.39
2023-12-15T04:53:16.000Z,6.40
2023-12-15T04:54:16.000Z,6.39
2023-12-15T04:55:16.000Z,6.40
2023-12-15T04:56:16.000Z,6.38
2023-12-15T04:57:16.000Z,6.38
2023-12-15T04:58:16.000Z,6.39
2023-12-15T04:59:16.000Z,6.37
2023-12-15T05:00:16.000Z,6.38
2023-12-15T05:01:16.000Z,6.37
2023-12-15T05:02:16.000Z,6.38
2023-12-15T05:03:16.000Z,6.39
2023-12-15T05:04:16.000Z,6.37
2023-12-15T05:05:16.000Z,6.38
2023-12-15T05:06:19.000Z,6.39
2023-12-15T05:07:16.000Z,6.38
2023-12-15T05:08:16.000Z,6.39
2023-12-15T05:09:16.000Z,6.39
2023-12-15T05:10:16.000Z,6.38
2023-12-15T05:11:17.000Z,6.37
2023-12-15T05:12:16.000Z,6.37
2023-12-15T05:13:16.000Z,6.38
2023-12-15T05:14:16.000Z,6.38
2023-12-15T05:15:16.000Z,6.38
2023-12-15T05:16:16.000Z,6.37
2023-12-15T05:17:17.000Z,6.36
2023-12-15T05:18:17.000Z,6.36
2023-12-15T05:19:16.000Z,6.37
2023-12-15T05:20:17.000Z,6.37
2023-12-15T05:21:16.000Z,6.36
2023-12-15T05:22:16.000Z,6.35
2023-12-15T05:23:16.000Z,6.35
2023-12-15T05:24:16.000Z,6.34
2023-12-15T05:25:16.000Z,6.34
2023-12-15T05:26:16.000Z,6.33
2023-12-15T05:27:17.000Z,6.30
2023-12-15T05:28:16.000Z,6.29
2023-12-15T05:29:16.000Z,6.28
2023-12-15T05:30:16.000Z,6.28
2023-12-15T05:31:16.000Z,6.26
2023-12-15T05:32:16.000Z,6.28
2023-12-15T05:33:16.000Z,6.30
2023-12-15T05:34:16.000Z,6.31
2023-12-15T05:35:16.000Z,6.32
2023-12-15T05:36:20.000Z,6.33
2023-12-15T05:37:16.000Z,6.32
2023-12-15T05:38:17.000Z,6.33
2023-12-15T05:39:16.000Z,6.33
2023-12-15T05:40:16.000Z,6.34
2023-12-15T05:41:16.000Z,6.33
2023-12-15T05:42:16.000Z,6.34
2023-12-15T05:43:16.000Z,6.32
2023-12-15T05:44:16.000Z,6.33
2023-12-15T05:45:16.000Z,6.33
2023-12-15T05:46:18.000Z,6.33
2023-12-15T05:47:16.000Z,6.33
2023-12-15T05:48:16.000Z,6.34
2023-12-15T05:49:16.000Z,6.33
2023-12-15T05:50:16.000Z,6.35
2023-12-15T05:51:16.000Z,6.36
2023-12-15T05:52:16.000Z,6.35
2023-12-15T05:53:16.000Z,6.35
2023-12-15T05:54:16.000Z,6.34
2023-12-15T05:55:16.000Z,6.35
2023-12-15T05:56:16.000Z,6.34
2023-12-15T05:57:16.000Z,6.35
2023-12-15T05:58:16.000Z,6.35
2023-12-15T05:59:16.000Z,6.36
2023-12-15T06:00:16.000Z,6.36
2023-12-15T06:01:16.000Z,6.36
2023-12-15T06:02:17.000Z,6.35
2023-12-15T06:03:17.000Z,6.35
2023-12-15T06:04:16.000Z,6.33
2023-12-15T06:05:16.000Z,6.34
2023-12-15T06:06:16.000Z,6.34
2023-12-15T06:07:16.000Z,6.33
2023-12-15T06:08:16.000Z,6.32
2023-12-15T06:09:16.000Z,6.32
2023-12-15T06:10:16.000Z,6.32
2023-12-15T06:11:17.000Z,6.33
2023-12-15T06:12:16.000Z,6.34
2023-12-15T06:13:16.000Z,6.33
2023-12-15T06:14:17.000Z,6.32
2023-12-15T06:15:16.000Z,6.32
2023-12-15T06:16:20.000Z,6.33
2023-12-15T06:17:16.000Z,6.32
2023-12-15T06:18:16.000Z,6.33
2023-12-15T06:19:16.000Z,6.33
2023-12-15T06:20:16.000Z,6.33
2023-12-15T06:21:23.000Z,6.32
2023-12-15T06:22:16.000Z,6.33
2023-12-15T06:23:16.000Z,6.32
2023-12-15T06:24:16.000Z,6.34
2023-12-15T06:25:16.000Z,6.33
2023-12-15T06:26:20.000Z,6.33
2023-12-15T06:27:16.000Z,6.33
2023-12-15T06:28:16.000Z,6.33
2023-12-15T06:29:16.000Z,6.34
2023-12-15T06:30:16.000Z,6.34
2023-12-15T06:31:16.000Z,6.35
2023-12-15T06:32:16.000Z,6.35
2023-12-15T06:33:16.000Z,6.36
2023-12-15T06:34:16.000Z,6.35
2023-12-15T06:35:16.000Z,6.36
2023-12-15T06:36:16.000Z,6.36
2023-12-15T06:37:16.000Z,6.36
2023-12-15T06:38:16.000Z,6.37
2023-12-15T06:39:16.000Z,6.36
2023-12-15T06:40:16.000Z,6.38
2023-12-15T06:41:16.000Z,6.35
2023-12-15T06:42:16.000Z,6.37
2023-12-15T06:43:16.000Z,6.35
2023-12-15T06:44:16.000Z,6.37
2023-12-15T06:45:16.000Z,6.36
2023-12-15T06:46:16.000Z,6.36
2023-12-15T06:47:16.000Z,6.37
2023-12-15T06:48:16.000Z,6.38
2023-12-15T06:49:18.000Z,6.38
2023-12-15T06:50:16.000Z,6.38
2023-12-15T06:51:16.000Z,6.40
2023-12-15T06:52:16.000Z,6.39
2023-12-15T06:53:17.000Z,6.38
2023-12-15T06:54:15.000Z,6.38
2023-12-15T06:55:16.000Z,6.40
2023-12-15T06:56:15.000Z,6.39
2023-12-15T06:57:15.000Z,6.39
2023-12-15T06:58:16.000Z,6.38
2023-12-15T06:59:16.000Z,6.41
2023-12-15T07:00:16.000Z,6.41
2023-12-15T07:01:16.000Z,6.40
2023-12-15T07:02:15.000Z,6.40
2023-12-15T07:03:15.000Z,6.38
2023-12-15T07:04:15.000Z,6.40
2023-12-15T07:05:16.000Z,6.41
2023-12-15T07:06:17.000Z,6.41
2023-12-15T07:07:16.000Z,6.39
2023-12-15T07:08:16.000Z,6.42
2023-12-15T07:09:15.000Z,6.39
2023-12-15T07:10:16.000Z,6.40
2023-12-15T07:11:16.000Z,6.41
2023-12-15T07:12:15.000Z,6.40
2023-12-15T07:13:16.000Z,6.41
2023-12-15T07:14:15.000Z,6.40
2023-12-15T07:15:16.000Z,6.40
2023-12-15T07:16:16.000Z,6.42
2023-12-15T07:17:15.000Z,6.42
2023-12-15T07:18:15.000Z,6.42
2023-12-15T07:19:16.000Z,6.43
2023-12-15T07:20:16.000Z,6.42
2023-12-15T07:21:16.000Z,6.41
2023-12-15T07:22:16.000Z,6.41
2023-12-15T07:23:16.000Z,6.41
2023-12-15T07:24:16.000Z,6.40
2023-12-15T07:25:16.000Z,6.40
2023-12-15T07:26:17.000Z,6.40
2023-12-15T07:27:16.000Z,6.41
2023-12-15T07:28:15.000Z,6.41
2023-12-15T07:29:16.000Z,6.39
2023-12-15T07:30:16.000Z,6.41
2023-12-15T07:31:16.000Z,6.42
2023-12-15T07:32:15.000Z,6.43
2023-12-15T07:33:15.000Z,6.43
2023-12-15T07:34:16.000Z,6.44
2023-12-15T07:35:16.000Z,6.44
2023-12-15T07:36:16.000Z,6.44
2023-12-15T07:37:16.000Z,6.43
2023-12-15T07:38:16.000Z,6.42
2023-12-15T07:39:20.000Z,6.43
2023-12-15T07:40:16.000Z,6.43
2023-12-15T07:41:16.000Z,6.43
2023-12-15T07:42:16.000Z,6.44
2023-12-15T07:43:16.000Z,6.43
2023-12-15T07:44:16.000Z,6.45
2023-12-15T07:45:15.000Z,6.45
2023-12-15T07:46:17.000Z,6.45
2023-12-15T07:47:16.000Z,6.45
2023-12-15T07:48:16.000Z,6.46
2023-12-15T07:49:16.000Z,6.47
2023-12-15T07:50:16.000Z,6.45
2023-12-15T07:51:18.000Z,6.48
2023-12-15T07:52:16.000Z,6.48
2023-12-15T07:53:16.000Z,6.49
2023-12-15T07:54:17.000Z,6.50
2023-12-15T07:55:18.000Z,6.50
2023-12-15T07:56:24.000Z,6.50
2023-12-15T07:57:16.000Z,6.50
2023-12-15T07:58:16.000Z,6.50
2023-12-15T07:59:16.000Z,6.50
2023-12-15T08:00:16.000Z,6.51
2023-12-15T08:01:21.000Z,6.53
2023-12-15T08:02:20.000Z,6.51
2023-12-15T08:03:16.000Z,6.52
2023-12-15T08:04:17.000Z,6.51
2023-12-15T08:05:18.000Z,6.51
2023-12-15T08:06:17.000Z,6.53
2023-12-15T08:07:16.000Z,6.52
2023-12-15T08:08:16.000Z,6.53
2023-12-15T08:09:16.000Z,6.54
2023-12-15T08:10:16.000Z,6.53
2023-12-15T08:11:16.000Z,6.52
2023-12-15T08:12:17.000Z,6.53
2023-12-15T08:13:16.000Z,6.56
2023-12-15T08:14:16.000Z,6.55
2023-12-15T08:15:16.000Z,6.55
2023-12-15T08:16:16.000Z,6.55
2023-12-15T08:17:16.000Z,6.56
2023-12-15T08:18:16.000Z,6.56
2023-12-15T08:19:16.000Z,6.56
2023-12-15T08:20:16.000Z,6.58
2023-12-15T08:21:16.000Z,6.56
2023-12-15T08:22:16.000Z,6.56
2023-12-15T08:23:16.000Z,6.58
2023-12-15T08:24:16.000Z,6.59
2023-12-15T08:25:16.000Z,6.59
2023-12-15T08:26:21.000Z,6.59
2023-12-15T08:27:20.000Z,6.58
2023-12-15T08:28:18.000Z,6.58
2023-12-15T08:29:16.000Z,6.60
2023-12-15T08:30:16.000Z,6.59
2023-12-15T08:31:16.000Z,6.60
2023-12-15T08:32:16.000Z,6.60
2023-12-15T08:33:16.000Z,6.59
2023-12-15T08:34:16.000Z,6.62
2023-12-15T08:35:15.000Z,6.62
2023-12-15T08:36:16.000Z,6.62
2023-12-15T08:37:16.000Z,6.61
2023-12-15T08:38:16.000Z,6.60
2023-12-15T08:39:16.000Z,6.61
2023-12-15T08:40:16.000Z,6.61
2023-12-15T08:41:16.000Z,6.60
2023-12-15T08:42:16.000Z,6.61
2023-12-15T08:43:15.000Z,6.63
2023-12-15T08:44:16.000Z,6.63
2023-12-15T08:45:16.000Z,6.60
2023-12-15T08:46:16.000Z,6.63
2023-12-15T08:47:16.000Z,6.62
2023-12-15T08:48:16.000Z,6.61
2023-12-15T08:49:16.000Z,6.62
2023-12-15T08:50:16.000Z,6.62
2023-12-15T08:51:16.000Z,6.63
2023-12-15T08:52:15.000Z,6.64
2023-12-15T08:53:17.000Z,6.61
2023-12-15T08:54:16.000Z,6.63
2023-12-15T08:55:15.000Z,6.62
2023-12-15T08:56:15.000Z,6.62
2023-12-15T08:57:15.000Z,6.62
2023-12-15T08:58:16.000Z,6.64
2023-12-15T08:59:15.000Z,6.62
2023-12-15T09:00:16.000Z,6.64
2023-12-15T09:01:16.000Z,6.65
2023-12-15T09:02:16.000Z,6.64
2023-12-15T09:03:17.000Z,6.65
2023-12-15T09:04:16.000Z,6.65
2023-12-15T09:05:16.000Z,6.65
2023-12-15T09:06:16.000Z,6.69
2023-12-15T09:07:16.000Z,6.68
2023-12-15T09:08:16.000Z,6.68
2023-12-15T09:09:16.000Z,6.69
2023-12-15T09:10:17.000Z,6.70
2023-12-15T09:11:16.000Z,6.72
2023-12-15T09:12:16.000Z,6.71
2023-12-15T09:13:19.000Z,6.72
2023-12-15T09:14:16.000Z,6.75
2023-12-15T09:15:16.000Z,6.77
2023-12-15T09:16:16.000Z,6.78
2023-12-15T09:17:16.000Z,6.81
2023-12-15T09:18:16.000Z,6.79
2023-12-15T09:19:16.000Z,6.79
2023-12-15T09:20:16.000Z,6.79
2023-12-15T09:21:16.000Z,6.81
2023-12-15T09:22:16.000Z,6.80
2023-12-15T09:23:16.000Z,6.81
2023-12-15T09:24:18.000Z,6.81
2023-12-15T09:25:16.000Z,6.82
2023-12-15T09:26:15.000Z,6.82
2023-12-15T09:27:15.000Z,6.81
2023-12-15T09:28:16.000Z,6.82
2023-12-15T09:29:18.000Z,6.82
2023-12-15T09:30:16.000Z,6.85
2023-12-15T09:31:16.000Z,6.84
2023-12-15T09:32:16.000Z,6.84
2023-12-15T09:33:16.000Z,6.84
2023-12-15T09:34:17.000Z,6.87
2023-12-15T09:35:17.000Z,6.85
2023-12-15T09:36:16.000Z,6.87
2023-12-15T09:37:15.000Z,6.84
2023-12-15T09:38:16.000Z,6.86
2023-12-15T09:39:15.000Z,6.83
2023-12-15T09:40:20.000Z,6.86
2023-12-15T09:41:16.000Z,6.88
2023-12-15T09:42:16.000Z,6.86
2023-12-15T09:43:16.000Z,6.86
2023-12-15T09:44:16.000Z,6.86
2023-12-15T09:45:16.000Z,6.86
2023-12-15T09:46:16.000Z,6.92
2023-12-15T09:47:20.000Z,6.90
2023-12-15T09:48:19.000Z,6.90
2023-12-15T09:49:16.000Z,6.89
2023-12-15T09:50:17.000Z,6.91
2023-12-15T09:51:22.000Z,6.90
2023-12-15T09:52:17.000Z,6.90
2023-12-15T09:53:17.000Z,6.91
2023-12-15T09:54:17.000Z,6.91
2023-12-15T09:55:16.000Z,6.91
2023-12-15T09:56:16.000Z,6.90
2023-12-15T09:57:17.000Z,6.92
2023-12-15T09:58:16.000Z,6.91
2023-12-15T09:59:16.000Z,6.91
2023-12-15T10:00:16.000Z,6.89
2023-12-15T10:01:16.000Z,6.90
2023-12-15T10:02:16.000Z,6.91
2023-12-15T10:03:16.000Z,6.90
2023-12-15T10:04:16.000Z,6.93
2023-12-15T10:05:16.000Z,6.93
2023-12-15T10:06:18.000Z,6.94
2023-12-15T10:07:16.000Z,6.94
2023-12-15T10:08:18.000Z,6.95
2023-12-15T10:09:16.000Z,6.95
2023-12-15T10:10:20.000Z,6.94
2023-12-15T10:11:17.000Z,6.94
2023-12-15T10:12:16.000Z,6.94
2023-12-15T10:13:16.000Z,6.94
2023-12-15T10:14:16.000Z,6.93
2023-12-15T10:15:17.000Z,6.95
2023-12-15T10:16:16.000Z,6.94
2023-12-15T10:17:16.000Z,6.95
2023-12-15T10:18:16.000Z,6.93
2023-12-15T10:19:16.000Z,6.94
2023-12-15T10:20:16.000Z,6.93
2023-12-15T10:21:16.000Z,6.93
2023-12-15T10:22:15.000Z,6.95
2023-12-15T10:23:25.000Z,6.98
2023-12-15T10:24:18.000Z,6.97
2023-12-15T10:25:20.000Z,6.97
2023-12-15T10:26:15.000Z,6.95
2023-12-15T10:27:15.000Z,6.96
2023-12-15T10:28:15.000Z,6.96
2023-12-15T10:29:19.000Z,6.96
2023-12-15T10:30:17.000Z,6.95
2023-12-15T10:31:15.000Z,6.96
2023-12-15T10:32:15.000Z,6.94
2023-12-15T10:33:17.000Z,6.92
2023-12-15T10:34:16.000Z,6.93
2023-12-15T10:35:16.000Z,6.92
2023-12-15T10:36:16.000Z,6.93
2023-12-15T10:37:15.000Z,6.94
2023-12-15T10:38:16.000Z,6.94
2023-12-15T10:39:17.000Z,6.93
2023-12-15T10:40:17.000Z,6.94
2023-12-15T10:41:17.000Z,6.93
2023-12-15T10:42:16.000Z,6.94
2023-12-15T10:43:16.000Z,6.93
2023-12-15T10:44:16.000Z,6.95
2023-12-15T10:45:17.000Z,6.95
2023-12-15T10:46:19.000Z,6.95
2023-12-15T10:47:16.000Z,6.97
2023-12-15T10:48:18.000Z,6.96
2023-12-15T10:49:17.000Z,6.94
2023-12-15T10:50:16.000Z,6.93
2023-12-15T10:51:16.000Z,6.94
2023-12-15T10:52:16.000Z,6.95
2023-12-15T10:53:16.000Z,6.95
2023-12-15T10:54:17.000Z,6.96
2023-12-15T10:55:18.000Z,6.95
2023-12-15T10:56:16.000Z,6.97
2023-12-15T10:57:16.000Z,6.96
2023-12-15T10:58:16.000Z,6.96
2023-12-15T10:59:16.000Z,6.97
2023-12-15T11:00:19.000Z,6.96
2023-12-15T11:01:16.000Z,6.99
2023-12-15T11:02:21.000Z,6.97
2023-12-15T11:03:16.000Z,6.97
2023-12-15T11:04:25.000Z,6.97
2023-12-15T11:05:16.000Z,6.97
2023-12-15T11:06:25.000Z,6.96
2023-12-15T11:07:20.000Z,6.98
2023-12-15T11:08:16.000Z,6.99
2023-12-15T11:09:26.000Z,7.00
2023-12-15T11:10:16.000Z,7.00
2023-12-15T11:11:23.000Z,6.99
2023-12-15T11:12:25.000Z,7.01
2023-12-15T11:13:25.000Z,6.99
2023-12-15T11:14:16.000Z,6.99
2023-12-15T11:15:17.000Z,6.96
2023-12-15T11:16:17.000Z,6.96
2023-12-15T11:17:16.000Z,6.95
2023-12-15T11:18:16.000Z,6.98
2023-12-15T11:19:16.000Z,6.98
2023-12-15T11:20:38.000Z,6.95
2023-12-15T11:21:16.000Z,6.98
2023-12-15T11:22:17.000Z,6.98
2023-12-15T11:23:16.000Z,6.98
2023-12-15T11:24:16.000Z,6.99
2023-12-15T11:25:24.000Z,6.99
2023-12-15T11:26:20.000Z,7.02
2023-12-15T11:27:16.000Z,6.98
2023-12-15T11:28:17.000Z,7.01
2023-12-15T11:29:17.000Z,7.01
2023-12-15T11:30:25.000Z,7.02
2023-12-15T11:31:21.000Z,7.00
2023-12-15T11:32:25.000Z,7.01
2023-12-15T11:33:35.000Z,7.00
2023-12-15T11:34:25.000Z,7.00
2023-12-15T11:35:25.000Z,7.00
2023-12-15T11:36:16.000Z,7.00
2023-12-15T11:37:17.000Z,7.02
2023-12-15T11:38:16.000Z,7.03
2023-12-15T11:39:16.000Z,7.03
2023-12-15T11:40:16.000Z,7.03
2023-12-15T11:41:18.000Z,7.05
2023-12-15T11:42:16.000Z,7.04
2023-12-15T11:43:16.000Z,7.05
2023-12-15T11:44:16.000Z,7.06
2023-12-15T11:45:17.000Z,7.07
2023-12-15T11:46:18.000Z,7.04
2023-12-15T11:47:16.000Z,7.04
2023-12-15T11:48:16.000Z,7.06
2023-12-15T11:49:21.000Z,7.05
2023-12-15T11:50:16.000Z,7.04
2023-12-15T11:51:18.000Z,7.07
2023-12-15T11:52:16.000Z,7.07
2023-12-15T11:53:17.000Z,7.06
2023-12-15T11:54:16.000Z,7.05
2023-12-15T11:55:17.000Z,7.07
2023-12-15T11:56:17.000Z,7.07
2023-12-15T11:57:16.000Z,7.07
2023-12-15T11:58:17.000Z,7.07
2023-12-15T11:59:16.000Z,7.07
2023-12-15T12:00:19.000Z,7.06
2023-12-15T12:01:16.000Z,7.07
2023-12-15T12:02:16.000Z,7.08
2023-12-15T12:03:16.000Z,7.07
2023-12-15T12:04:17.000Z,7.06
2023-12-15T12:05:16.000Z,7.05
2023-12-15T12:06:20.000Z,7.07
2023-12-15T12:07:16.000Z,7.09
2023-12-15T12:08:16.000Z,7.09
2023-12-15T12:09:16.000Z,7.11
2023-12-15T12:10:16.000Z,7.13
2023-12-15T12:11:16.000Z,7.12
2023-12-15T12:12:17.000Z,7.10
2023-12-15T12:13:16.000Z,7.12
2023-12-15T12:14:16.000Z,7.14
2023-12-15T12:15:15.000Z,7.14
2023-12-15T12:16:16.000Z,7.15
2023-12-15T12:17:16.000Z,7.14
2023-12-15T12:18:21.000Z,7.15
2023-12-15T12:19:16.000Z,7.16
2023-12-15T12:20:16.000Z,7.15
2023-12-15T12:21:16.000Z,7.17
2023-12-15T12:22:18.000Z,7.16
2023-12-15T12:23:16.000Z,7.14
2023-12-15T12:24:16.000Z,7.15
2023-12-15T12:25:16.000Z,7.15
2023-12-15T12:26:15.000Z,7.17
2023-12-15T12:27:16.000Z,7.18
2023-12-15T12:28:23.000Z,7.16
2023-12-15T12:29:15.000Z,7.17
2023-12-15T12:30:17.000Z,7.20
2023-12-15T12:31:16.000Z,7.17
2023-12-15T12:32:15.000Z,7.17
2023-12-15T12:33:16.000Z,7.18
2023-12-15T12:34:15.000Z,7.19
2023-12-15T12:35:15.000Z,7.21
2023-12-15T12:36:16.000Z,7.20
2023-12-15T12:37:16.000Z,7.21
2023-12-15T12:38:15.000Z,7.18
2023-12-15T12:39:21.000Z,7.21
2023-12-15T12:40:15.000Z,7.18
2023-12-15T12:41:15.000Z,7.20
2023-12-15T12:42:15.000Z,7.18
2023-12-15T12:43:16.000Z,7.20
2023-12-15T12:44:15.000Z,7.22
2023-12-15T12:45:15.000Z,7.22
2023-12-15T12:46:16.000Z,7.22
2023-12-15T12:47:16.000Z,7.21
2023-12-15T12:48:15.000Z,7.21
2023-12-15T12:49:15.000Z,7.23
2023-12-15T12:50:16.000Z,7.26
2023-12-15T12:51:17.000Z,7.26
2023-12-15T12:52:16.000Z,7.28
2023-12-15T12:53:15.000Z,7.25
2023-12-15T12:54:16.000Z,7.27
2023-12-15T12:55:16.000Z,7.26
2023-12-15T12:56:16.000Z,7.27
2023-12-15T12:57:15.000Z,7.25
2023-12-15T12:58:16.000Z,7.28
2023-12-15T12:59:17.000Z,7.29
2023-12-15T13:00:16.000Z,7.29
2023-12-15T13:01:16.000Z,7.28
2023-12-15T13:02:16.000Z,7.28
2023-12-15T13:03:16.000Z,7.27
2023-12-15T13:04:16.000Z,7.26
2023-12-15T13:05:16.000Z,7.25
2023-12-15T13:06:16.000Z,7.27
2023-12-15T13:07:16.000Z,7.28
2023-12-15T13:08:16.000Z,7.24
2023-12-15T13:09:19.000Z,7.26
2023-12-15T13:10:15.000Z,7.28
2023-12-15T13:11:16.000Z,7.29
2023-12-15T13:12:17.000Z,7.30
2023-12-15T13:13:15.000Z,7.26
2023-12-15T13:14:15.000Z,7.29
2023-12-15T13:15:15.000Z,7.28
2023-12-15T13:16:16.000Z,7.30
2023-12-15T13:17:16.000Z,7.29
2023-12-15T13:18:16.000Z,7.28